Time;durP1;ratioP1;P1;durP2;ratioP2;P2;SDS_P1;SDS_P2;PMS_P1;PMS_P2;Temp;Humidity;BMP_temperature;BMP_pressure;BME280_temperature;BME280_humidity;BME280_pressure;Samples;Min_cycle;Max_cycle;Signal;HPM_P1;HPM_P2
2022/12/12 00:01:34;;;;;;;61.97;30.43;;;2.30;99.90;;;;;;5019026;28;20259;-72
2022/12/12 00:04:00;;;;;;;26.60;14.53;;;2.40;99.90;;;;;;5018816;28;20204;-72
2022/12/12 00:06:26;;;;;;;24.80;12.60;;;2.30;99.90;;;;;;5018069;28;20256;-71
2022/12/12 00:08:52;;;;;;;18.30;10.33;;;2.40;99.90;;;;;;5018942;28;20580;-72
2022/12/12 00:11:19;;;;;;;23.77;12.67;;;2.30;99.90;;;;;;5018952;28;20196;-72
2022/12/12 00:13:45;;;;;;;30.30;15.30;;;2.40;99.90;;;;;;5018991;28;20205;-72
2022/12/12 00:16:11;;;;;;;25.07;11.93;;;2.40;99.90;;;;;;5019018;28;20288;-73
2022/12/12 00:18:40;;;;;;;24.70;12.17;;;2.30;99.90;;;;;;5018906;28;20175;-71
2022/12/12 00:21:15;;;;;;;25.40;12.93;;;2.10;99.90;;;;;;5019394;28;20157;-71
2022/12/12 00:23:41;;;;;;;21.07;11.00;;;2.20;99.90;;;;;;5018918;28;20203;-72
2022/12/12 00:26:14;;;;;;;23.40;11.73;;;2.20;99.90;;;;;;5018987;28;20256;-72
2022/12/12 00:28:39;;;;;;;21.27;10.67;;;2.20;99.90;;;;;;5018680;28;20149;-72
2022/12/12 00:31:05;;;;;;;24.00;11.53;;;2.30;99.90;;;;;;5018337;28;20665;-72
2022/12/12 00:33:30;;;;;;;23.50;12.83;;;2.20;99.90;;;;;;5018768;28;20198;-72
2022/12/12 00:35:56;;;;;;;26.17;12.30;;;2.20;99.90;;;;;;5018751;28;20173;-72
2022/12/12 00:38:22;;;;;;;24.00;12.13;;;2.10;99.90;;;;;;5017581;28;20177;-71
2022/12/12 00:40:48;;;;;;;25.00;11.00;;;2.10;99.90;;;;;;5019009;28;20263;-72
2022/12/12 00:43:14;;;;;;;24.23;11.70;;;2.00;99.90;;;;;;5018934;28;20200;-71
2022/12/12 00:45:40;;;;;;;26.40;11.50;;;1.90;99.90;;;;;;5018828;28;20184;-72
2022/12/12 00:48:06;;;;;;;29.03;14.07;;;2.00;99.90;;;;;;5015789;28;20513;-72
2022/12/12 00:50:33;;;;;;;26.23;12.50;;;2.00;99.90;;;;;;5015333;28;20220;-72
2022/12/12 00:52:59;;;;;;;25.40;13.40;;;2.00;99.90;;;;;;5015411;28;20631;-72
2022/12/12 00:55:26;;;;;;;21.03;11.57;;;1.80;99.90;;;;;;5015548;28;20172;-71
2022/12/12 00:57:52;;;;;;;19.90;11.27;;;1.60;99.90;;;;;;5015521;28;20180;-72
2022/12/12 01:00:19;;;;;;;21.60;10.87;;;1.60;99.90;;;;;;5015180;28;20183;-71
2022/12/12 01:02:45;;;;;;;20.47;10.43;;;1.60;99.90;;;;;;5015095;28;20519;-72
2022/12/12 01:05:12;;;;;;;21.87;10.57;;;1.60;99.90;;;;;;5015287;28;20226;-72
2022/12/12 01:07:40;;;;;;;19.30;10.07;;;1.60;99.90;;;;;;5014261;28;20168;-72
2022/12/12 01:10:07;;;;;;;20.33;10.70;;;1.40;99.90;;;;;;5015239;28;20664;-72
2022/12/12 01:12:33;;;;;;;20.10;10.10;;;1.40;99.90;;;;;;5013563;28;20207;-72
2022/12/12 01:14:58;;;;;;;19.63;10.33;;;1.50;99.90;;;;;;5013873;28;20211;-72
2022/12/12 01:17:24;;;;;;;23.27;11.67;;;1.40;99.90;;;;;;5015048;28;20176;-72
2022/12/12 01:19:50;;;;;;;20.83;12.13;;;1.40;99.90;;;;;;5015034;28;20202;-72
2022/12/12 01:22:16;;;;;;;21.47;11.00;;;1.40;99.90;;;;;;5015025;28;20162;-71
2022/12/12 01:24:42;;;;;;;21.77;12.47;;;1.50;99.90;;;;;;5014555;28;20189;-72
2022/12/12 01:27:08;;;;;;;25.17;11.37;;;1.50;99.90;;;;;;5014735;28;20170;-71
2022/12/12 01:29:34;;;;;;;23.80;11.97;;;1.40;99.90;;;;;;5015032;28;20161;-72
2022/12/12 01:32:00;;;;;;;20.40;11.30;;;1.50;99.90;;;;;;5014856;28;20173;-71
2022/12/12 01:34:25;;;;;;;20.70;11.03;;;1.50;99.90;;;;;;5014799;28;20185;-72
2022/12/12 01:36:51;;;;;;;20.07;11.70;;;1.60;99.90;;;;;;5014610;28;20250;-71
2022/12/12 01:39:18;;;;;;;22.13;10.67;;;1.40;99.90;;;;;;5014963;28;20173;-72
2022/12/12 01:41:43;;;;;;;24.57;10.80;;;1.40;99.90;;;;;;5013264;28;20578;-71
2022/12/12 01:44:40;;;;;;;20.00;10.33;;;1.30;99.90;;;;;;5014317;28;20214;-72
2022/12/12 01:47:07;;;;;;;17.23;9.73;;;1.40;99.90;;;;;;4994257;28;20213;-72
2022/12/12 01:49:34;;;;;;;22.47;11.03;;;1.30;99.90;;;;;;5008504;28;20201;-71
2022/12/12 01:52:04;;;;;;;21.87;10.40;;;1.30;99.90;;;;;;5014368;28;20642;-71
2022/12/12 01:54:33;;;;;;;21.43;11.03;;;1.30;99.90;;;;;;5014374;28;20188;-71
2022/12/12 01:57:03;;;;;;;21.43;10.20;;;1.40;99.90;;;;;;5012954;28;20183;-71
2022/12/12 01:59:33;;;;;;;20.13;9.70;;;1.40;99.90;;;;;;5013104;28;20548;-72
2022/12/12 02:01:59;;;;;;;22.43;10.37;;;1.30;99.90;;;;;;5014085;28;20244;-72
2022/12/12 02:04:27;;;;;;;20.27;9.87;;;1.20;99.90;;;;;;5013723;28;20301;-72
2022/12/12 02:06:54;;;;;;;22.13;11.20;;;1.20;99.90;;;;;;5012592;28;20173;-71
2022/12/12 02:09:23;;;;;;;23.40;11.23;;;1.20;99.90;;;;;;5014037;28;20596;-71
2022/12/12 02:11:52;;;;;;;23.57;11.57;;;1.30;99.90;;;;;;5014064;28;20168;-71
2022/12/12 02:14:44;;;;;;;22.33;10.90;;;1.20;99.90;;;;;;5014258;28;20698;-71
2022/12/12 02:17:21;;;;;;;21.47;10.13;;;1.10;99.90;;;;;;5013951;28;20233;-71
2022/12/12 02:20:22;;;;;;;24.20;10.57;;;1.00;99.90;;;;;;5014262;28;20154;-72
2022/12/12 02:23:30;;;;;;;19.07;9.57;;;1.00;99.90;;;;;;5012602;28;20172;-71
2022/12/12 02:26:04;;;;;;;22.53;10.87;;;0.90;99.90;;;;;;5011983;28;20664;-71
2022/12/12 02:29:09;;;;;;;21.80;10.23;;;0.90;99.90;;;;;;5013760;28;20177;-72
2022/12/12 02:31:52;;;;;;;20.07;10.40;;;0.90;99.90;;;;;;5013213;28;20259;-72
2022/12/12 02:34:32;;;;;;;19.23;10.40;;;1.00;99.90;;;;;;5013493;28;20598;-71
2022/12/12 02:37:07;;;;;;;20.33;10.53;;;0.70;99.90;;;;;;5013567;28;20642;-72
2022/12/12 02:39:42;;;;;;;22.57;10.90;;;0.80;99.90;;;;;;5013601;28;20164;-72
2022/12/12 02:42:27;;;;;;;16.67;9.73;;;0.70;99.90;;;;;;5013097;28;20205;-72
2022/12/12 02:45:10;;;;;;;18.33;9.40;;;0.50;99.90;;;;;;5012227;28;20200;-73
2022/12/12 02:47:41;;;;;;;18.03;10.03;;;0.60;99.90;;;;;;5013409;28;20176;-73
2022/12/12 02:50:15;;;;;;;18.23;10.10;;;0.40;99.90;;;;;;5012716;28;20217;-71
2022/12/12 02:52:46;;;;;;;21.27;10.53;;;0.20;99.90;;;;;;5013381;28;20161;-73
2022/12/12 02:55:13;;;;;;;23.07;11.17;;;0.10;99.90;;;;;;5013268;28;20259;-72
2022/12/12 02:57:40;;;;;;;20.03;10.77;;;0.30;99.90;;;;;;5011937;28;20231;-72
2022/12/12 03:00:14;;;;;;;23.00;11.50;;;0.30;99.90;;;;;;5011908;28;20181;-72
2022/12/12 03:09:25;;;;;;;21.07;10.30;;;0.40;99.90;;;;;;5010975;28;20653;-72
2022/12/12 03:11:59;;;;;;;21.93;10.20;;;0.30;99.90;;;;;;5010981;28;20189;-72
2022/12/12 03:14:57;;;;;;;20.23;10.33;;;0.20;99.90;;;;;;5013048;28;20534;-71
2022/12/12 03:17:25;;;;;;;22.23;10.90;;;0.00;99.90;;;;;;5013171;28;20504;-72
2022/12/12 03:20:22;;;;;;;22.93;11.77;;;0.00;99.90;;;;;;5012845;28;20182;-71
2022/12/12 03:23:08;;;;;;;20.20;9.93;;;0.00;99.90;;;;;;5012870;28;20174;-71
2022/12/12 03:25:46;;;;;;;22.20;10.30;;;0.00;99.90;;;;;;5013426;28;20236;-72
2022/12/12 03:28:21;;;;;;;24.37;10.20;;;0.20;99.90;;;;;;5013093;28;20199;-71
2022/12/12 03:30:54;;;;;;;21.03;9.90;;;0.20;99.90;;;;;;5012776;28;20184;-71
2022/12/12 03:33:28;;;;;;;21.07;10.63;;;0.20;99.90;;;;;;5011736;28;20223;-71
2022/12/12 03:36:01;;;;;;;21.90;10.97;;;0.10;99.90;;;;;;5012722;28;20176;-71
2022/12/12 03:38:31;;;;;;;23.10;11.73;;;0.20;99.90;;;;;;5012937;28;20168;-74
2022/12/12 03:41:04;;;;;;;22.37;10.47;;;0.10;99.90;;;;;;5013052;28;20172;-74
2022/12/12 03:43:36;;;;;;;19.57;10.53;;;0.20;99.90;;;;;;5012543;28;20770;-74
2022/12/12 03:46:13;;;;;;;26.23;12.00;;;0.20;99.90;;;;;;5012672;28;20180;-75
2022/12/12 03:49:02;;;;;;;22.23;10.80;;;0.10;99.90;;;;;;5012694;28;20203;-75
2022/12/12 03:51:31;;;;;;;21.13;11.23;;;0.10;99.90;;;;;;5012721;28;20169;-75
2022/12/12 03:54:01;;;;;;;25.90;11.27;;;0.10;99.90;;;;;;5012771;28;20173;-74
2022/12/12 03:56:36;;;;;;;22.27;11.07;;;0.00;99.90;;;;;;5012966;28;20227;-74
2022/12/12 03:59:16;;;;;;;20.57;11.40;;;-0.10;99.90;;;;;;5012820;28;20634;-74
2022/12/12 04:01:50;;;;;;;22.87;10.93;;;-0.10;99.90;;;;;;5011414;28;20237;-74
2022/12/12 04:04:24;;;;;;;21.47;10.93;;;0.00;99.90;;;;;;5011491;28;20302;-75
2022/12/12 04:06:55;;;;;;;20.77;10.23;;;-0.10;99.90;;;;;;5012602;28;20193;-75
2022/12/12 04:15:15;;;;;;;20.53;10.43;;;-0.30;99.90;;;;;;5012738;28;20179;-75
2022/12/12 04:17:48;;;;;;;20.87;10.30;;;-0.50;99.90;;;;;;5012588;28;20288;-75
2022/12/12 04:23:16;;;;;;;22.57;10.97;;;-0.40;99.90;;;;;;5015009;28;20264;-75
2022/12/12 04:29:12;;;;;;;20.63;10.23;;;-0.50;99.90;;;;;;5037330;28;20185;-75
2022/12/12 04:31:42;;;;;;;17.40;9.60;;;-0.60;99.90;;;;;;5016048;28;20575;-75
2022/12/12 04:34:41;;;;;;;22.40;9.90;;;-0.50;99.90;;;;;;5015800;28;20672;-75
2022/12/12 04:37:12;;;;;;;22.20;10.70;;;-0.50;99.90;;;;;;5015114;28;20642;-75
2022/12/12 04:39:40;;;;;;;26.03;10.83;;;-0.40;99.90;;;;;;5015766;28;20515;-75
2022/12/12 04:42:08;;;;;;;21.07;11.07;;;-0.50;99.90;;;;;;5016108;28;20710;-75
2022/12/12 04:44:38;;;;;;;21.17;10.30;;;-0.50;99.90;;;;;;5015770;28;20192;-75
2022/12/12 04:47:06;;;;;;;20.23;10.10;;;-0.40;99.90;;;;;;5015867;28;20171;-75
2022/12/12 04:49:34;;;;;;;20.20;10.50;;;-0.30;99.90;;;;;;5015589;28;20217;-75
2022/12/12 04:52:08;;;;;;;22.60;10.17;;;-0.40;99.90;;;;;;5015486;28;20171;-74
2022/12/12 04:54:46;;;;;;;20.03;9.97;;;-0.40;99.90;;;;;;5015715;28;20239;-74
2022/12/12 04:57:19;;;;;;;21.87;10.30;;;-0.60;99.90;;;;;;5015712;28;20184;-74
2022/12/12 04:59:46;;;;;;;19.63;10.40;;;-0.60;99.90;;;;;;5015817;28;20173;-74
2022/12/12 05:02:23;;;;;;;22.03;10.40;;;-0.60;99.90;;;;;;5015628;28;20578;-75
2022/12/12 05:05:01;;;;;;;20.03;10.60;;;-0.50;99.90;;;;;;5015476;28;20200;-74
2022/12/12 05:07:39;;;;;;;20.50;10.93;;;-0.40;99.90;;;;;;5015576;28;20175;-74
2022/12/12 05:10:11;;;;;;;24.87;10.67;;;-0.10;99.90;;;;;;5015324;28;20175;-74
2022/12/12 05:12:59;;;;;;;16.67;9.67;;;-0.20;99.90;;;;;;5047370;28;20198;-74
2022/12/12 05:15:26;;;;;;;19.40;9.50;;;-0.30;99.90;;;;;;5015309;28;20177;-74
2022/12/12 05:18:06;;;;;;;21.30;10.70;;;-0.50;99.90;;;;;;5015200;28;20188;-74
2022/12/12 05:20:31;;;;;;;22.97;10.50;;;-0.40;99.90;;;;;;5013968;28;20561;-74
2022/12/12 05:22:57;;;;;;;19.33;10.37;;;-0.40;99.90;;;;;;5015434;28;20204;-74
2022/12/12 05:25:22;;;;;;;19.97;9.53;;;-0.40;99.90;;;;;;5015143;28;20253;-74
2022/12/12 05:27:48;;;;;;;22.87;10.90;;;-0.30;99.90;;;;;;5013848;28;20270;-74
2022/12/12 05:30:14;;;;;;;21.87;10.30;;;-0.50;99.90;;;;;;5013823;28;20267;-75
2022/12/12 05:32:39;;;;;;;18.70;10.47;;;-0.50;99.90;;;;;;5014633;28;20160;-73
2022/12/12 05:35:06;;;;;;;18.50;9.73;;;-0.40;99.90;;;;;;5014734;28;20651;-75
2022/12/12 05:37:33;;;;;;;22.97;10.37;;;-0.50;99.90;;;;;;5014925;28;20173;-74
2022/12/12 05:39:58;;;;;;;22.67;9.80;;;-0.60;99.90;;;;;;5014632;28;20594;-75
2022/12/12 05:42:24;;;;;;;22.10;9.80;;;-0.60;99.90;;;;;;5014810;28;20174;-74
2022/12/12 05:44:50;;;;;;;24.97;10.33;;;-0.50;99.90;;;;;;5013823;28;20331;-74
2022/12/12 05:47:17;;;;;;;21.83;10.50;;;-0.30;99.90;;;;;;5014301;28;20170;-74
2022/12/12 05:49:43;;;;;;;23.90;10.20;;;-0.20;99.90;;;;;;5014626;28;20637;-74
2022/12/12 05:52:09;;;;;;;19.90;10.13;;;-0.30;99.90;;;;;;5012880;28;20253;-74
2022/12/12 05:54:34;;;;;;;22.07;9.87;;;-0.40;99.90;;;;;;5015813;28;20178;-74
2022/12/12 05:57:01;;;;;;;20.60;9.47;;;-0.40;99.90;;;;;;5015309;28;20173;-74
2022/12/12 05:59:27;;;;;;;22.23;9.67;;;-0.50;99.90;;;;;;5015446;28;20202;-74
2022/12/12 06:01:53;;;;;;;22.07;9.40;;;-0.70;99.90;;;;;;5014996;28;20190;-74
2022/12/12 06:04:18;;;;;;;21.53;10.80;;;-0.60;99.90;;;;;;5014671;28;20206;-74
2022/12/12 06:06:47;;;;;;;22.93;10.43;;;-0.70;99.90;;;;;;5014973;28;20258;-74
2022/12/12 06:09:14;;;;;;;24.67;10.87;;;-0.50;99.90;;;;;;5015260;28;20167;-74
2022/12/12 06:11:42;;;;;;;24.70;10.53;;;-0.50;99.90;;;;;;5014449;28;20179;-76
2022/12/12 06:14:09;;;;;;;21.33;10.07;;;-0.70;99.90;;;;;;5015033;28;20202;-74
2022/12/12 06:16:35;;;;;;;24.30;10.27;;;-0.70;99.90;;;;;;4997023;28;20631;-74
2022/12/12 06:19:03;;;;;;;23.03;10.23;;;-0.50;99.90;;;;;;5012734;28;20643;-74
2022/12/12 06:21:28;;;;;;;20.47;10.07;;;-0.40;99.90;;;;;;5013430;28;20244;-74
2022/12/12 06:23:54;;;;;;;24.00;10.03;;;-0.50;99.90;;;;;;5013346;28;20202;-74
2022/12/12 06:26:20;;;;;;;24.40;11.33;;;-0.80;99.90;;;;;;5013525;28;20181;-74
2022/12/12 06:28:47;;;;;;;22.67;10.33;;;-0.80;99.90;;;;;;5011578;28;20183;-74
2022/12/12 06:31:14;;;;;;;22.20;10.87;;;-0.80;99.90;;;;;;5011728;28;20227;-74
2022/12/12 06:33:41;;;;;;;26.67;12.00;;;-0.70;99.90;;;;;;5012821;28;20640;-74
2022/12/12 06:36:13;;;;;;;26.27;13.43;;;-0.70;99.90;;;;;;5011698;28;20260;-74
2022/12/12 06:38:39;;;;;;;26.53;11.60;;;-0.70;99.90;;;;;;5013029;28;20573;-75
2022/12/12 06:41:12;;;;;;;24.93;11.23;;;-0.70;99.90;;;;;;5013042;28;20640;-74
2022/12/12 06:43:38;;;;;;;24.37;10.87;;;-0.70;99.90;;;;;;5012914;28;20238;-74
2022/12/12 06:46:06;;;;;;;26.77;12.77;;;-0.60;99.90;;;;;;5010636;28;20176;-74
2022/12/12 06:48:33;;;;;;;27.70;14.07;;;-0.70;99.90;;;;;;5012225;28;20190;-74
2022/12/12 06:51:08;;;;;;;24.70;11.23;;;-0.70;99.90;;;;;;5011943;28;20181;-74
2022/12/12 06:53:35;;;;;;;23.60;11.00;;;-0.70;99.90;;;;;;5012510;28;20209;-76
2022/12/12 06:56:09;;;;;;;26.47;11.93;;;-0.70;99.90;;;;;;5012602;28;20181;-75
2022/12/12 06:58:40;;;;;;;24.00;11.40;;;-0.70;99.90;;;;;;5009131;28;20169;-74
2022/12/12 07:01:07;;;;;;;25.40;12.17;;;-0.70;99.90;;;;;;5011676;28;20173;-75
2022/12/12 07:03:34;;;;;;;23.30;11.33;;;-0.60;99.90;;;;;;5011764;28;20203;-75
2022/12/12 07:05:59;;;;;;;23.43;11.50;;;-0.60;99.90;;;;;;5011167;28;20608;-75
2022/12/12 07:08:29;;;;;;;23.50;11.43;;;-0.50;99.90;;;;;;5011565;28;20188;-74
2022/12/12 07:11:01;;;;;;;24.97;11.50;;;-0.50;99.90;;;;;;5010909;28;20186;-74
2022/12/12 07:13:27;;;;;;;30.93;13.00;;;-0.70;99.90;;;;;;5011308;28;20231;-75
2022/12/12 07:15:54;;;;;;;24.00;11.40;;;-0.70;99.90;;;;;;5013400;28;20178;-75
2022/12/12 07:18:20;;;;;;;24.70;10.90;;;-0.70;99.90;;;;;;5012156;28;20183;-75
2022/12/12 07:20:46;;;;;;;23.50;10.83;;;-0.70;99.90;;;;;;5013466;28;20188;-75
2022/12/12 07:23:12;;;;;;;28.00;12.20;;;-0.60;99.90;;;;;;5012670;28;20182;-74
2022/12/12 07:25:43;;;;;;;25.57;12.17;;;-0.50;99.90;;;;;;5013359;28;20573;-72
2022/12/12 07:28:10;;;;;;;24.77;13.83;;;-0.50;99.90;;;;;;5013161;28;20208;-73
2022/12/12 07:30:44;;;;;;;26.17;11.90;;;-0.50;99.90;;;;;;5013481;28;20164;-74
2022/12/12 07:33:11;;;;;;;26.47;11.97;;;-0.40;99.90;;;;;;5013105;28;20188;-73
2022/12/12 07:35:39;;;;;;;28.57;12.10;;;-0.50;99.90;;;;;;5013249;28;20267;-73
2022/12/12 07:38:05;;;;;;;25.30;12.60;;;-0.60;99.90;;;;;;5013492;28;20226;-73
2022/12/12 07:40:32;;;;;;;29.00;13.63;;;-0.60;99.90;;;;;;5013139;28;20646;-71
2022/12/12 07:42:59;;;;;;;25.67;12.40;;;-0.50;99.90;;;;;;5012948;28;20297;-73
2022/12/12 07:45:25;;;;;;;30.97;15.57;;;-0.50;99.90;;;;;;5012696;28;20261;-72
2022/12/12 07:47:57;;;;;;;29.93;13.60;;;-0.50;99.90;;;;;;5012892;28;20176;-72
2022/12/12 07:50:23;;;;;;;32.30;14.47;;;-0.60;99.90;;;;;;5012650;28;20168;-72
2022/12/12 07:52:48;;;;;;;36.00;17.23;;;-0.50;99.90;;;;;;5012416;28;20545;-73
2022/12/12 07:55:18;;;;;;;27.87;15.53;;;-0.50;99.90;;;;;;5012669;28;20171;-73
2022/12/12 07:57:45;;;;;;;30.77;14.53;;;-0.60;99.90;;;;;;5015628;28;20208;-72
2022/12/12 08:00:13;;;;;;;29.83;13.97;;;-0.60;99.90;;;;;;5017160;28;20549;-73
2022/12/12 08:02:39;;;;;;;33.80;17.87;;;-0.60;99.90;;;;;;5016944;28;20525;-72
2022/12/12 08:05:05;;;;;;;33.40;17.17;;;-0.60;99.90;;;;;;5016853;28;20199;-73
2022/12/12 08:07:31;;;;;;;32.27;15.20;;;-0.60;99.90;;;;;;5017374;28;20566;-72
2022/12/12 08:09:57;;;;;;;25.50;13.43;;;-0.60;99.90;;;;;;5013706;28;20310;-72
2022/12/12 08:12:24;;;;;;;26.10;12.80;;;-0.50;99.90;;;;;;5014944;28;20185;-71
2022/12/12 08:14:49;;;;;;;28.10;13.63;;;-0.70;99.90;;;;;;5015641;28;20176;-71
2022/12/12 08:17:15;;;;;;;26.70;11.67;;;-0.70;99.90;;;;;;5015956;28;20582;-74
2022/12/12 08:19:40;;;;;;;22.90;11.20;;;-0.70;99.90;;;;;;5015402;28;20205;-74
2022/12/12 08:22:08;;;;;;;25.07;10.73;;;-0.70;99.90;;;;;;5015953;28;20165;-73
2022/12/12 08:24:35;;;;;;;23.43;11.60;;;-0.60;99.90;;;;;;5016206;28;20668;-72
2022/12/12 08:27:01;;;;;;;26.27;12.53;;;-0.40;99.90;;;;;;5015902;28;20183;-71
2022/12/12 08:29:27;;;;;;;24.97;11.70;;;-0.40;99.90;;;;;;5016212;28;20173;-72
2022/12/12 08:31:54;;;;;;;31.93;11.97;;;-0.30;99.90;;;;;;5016432;28;20631;-73
2022/12/12 08:34:19;;;;;;;31.43;12.93;;;-0.20;99.90;;;;;;5016303;28;20204;-73
2022/12/12 08:36:46;;;;;;;24.70;12.70;;;-0.30;99.90;;;;;;5016576;28;20177;-72
2022/12/12 08:39:14;;;;;;;26.80;13.23;;;-0.40;99.90;;;;;;5016578;28;20182;-72
2022/12/12 08:41:43;;;;;;;27.83;12.27;;;-0.30;99.90;;;;;;5015397;28;20191;-72
2022/12/12 08:44:11;;;;;;;24.90;12.40;;;-0.20;99.90;;;;;;5016023;28;20274;-72
2022/12/12 08:46:38;;;;;;;29.47;12.53;;;-0.20;99.90;;;;;;5015399;28;20172;-72
2022/12/12 08:49:03;;;;;;;22.97;11.77;;;-0.20;99.90;;;;;;5016022;28;20180;-72
2022/12/12 08:51:29;;;;;;;25.73;11.70;;;-0.10;99.90;;;;;;5015377;28;20180;-73
2022/12/12 08:53:55;;;;;;;31.23;12.70;;;-0.20;99.90;;;;;;5015200;28;20179;-73
2022/12/12 08:56:22;;;;;;;27.57;12.33;;;-0.10;99.90;;;;;;5015314;28;20181;-73
2022/12/12 08:58:49;;;;;;;24.97;11.47;;;-0.10;99.90;;;;;;5014654;28;20184;-73
2022/12/12 09:01:18;;;;;;;26.23;11.97;;;-0.10;99.90;;;;;;5015720;28;20179;-72
2022/12/12 09:03:45;;;;;;;27.43;11.67;;;-0.20;99.90;;;;;;5015651;28;20235;-73
2022/12/12 09:06:11;;;;;;;22.77;10.70;;;-0.30;99.90;;;;;;5015561;28;20261;-72
2022/12/12 09:08:37;;;;;;;23.77;12.37;;;-0.20;99.90;;;;;;5013556;28;20196;-73
2022/12/12 09:11:03;;;;;;;24.80;11.07;;;-0.20;99.90;;;;;;5015150;28;20633;-73
2022/12/12 09:13:30;;;;;;;33.20;14.23;;;-0.20;99.90;;;;;;5015273;28;20169;-73
2022/12/12 09:15:56;;;;;;;24.20;12.60;;;-0.10;99.90;;;;;;5015340;28;20178;-73
2022/12/12 09:18:22;;;;;;;23.23;10.20;;;-0.30;99.90;;;;;;5015429;28;20247;-73
2022/12/12 09:20:49;;;;;;;24.03;11.83;;;-0.30;99.90;;;;;;5015015;28;20181;-73
2022/12/12 09:23:15;;;;;;;27.10;12.60;;;-0.10;99.90;;;;;;5015387;28;20162;-73
2022/12/12 09:25:41;;;;;;;21.77;10.37;;;0.00;99.90;;;;;;5014916;28;20600;-72
2022/12/12 09:28:07;;;;;;;25.07;11.30;;;0.10;99.90;;;;;;5015180;28;20179;-72
2022/12/12 09:30:32;;;;;;;23.00;10.70;;;0.00;99.90;;;;;;5014322;28;20184;-72
2022/12/12 09:32:58;;;;;;;25.03;11.20;;;0.00;99.90;;;;;;5014560;28;20253;-72
2022/12/12 09:35:23;;;;;;;25.20;11.33;;;0.30;99.90;;;;;;5013596;28;20184;-71
2022/12/12 09:37:49;;;;;;;21.57;10.03;;;0.40;99.90;;;;;;5014709;28;20622;-73
2022/12/12 09:40:53;;;;;;;22.07;10.07;;;0.50;99.90;;;;;;5013882;28;20210;-73
2022/12/12 09:43:26;;;;;;;21.83;10.20;;;0.50;99.90;;;;;;5012475;28;20202;-71
2022/12/12 09:45:52;;;;;;;26.07;10.70;;;0.50;99.90;;;;;;5014196;28;20161;-72
2022/12/12 09:48:41;;;;;;;21.70;9.43;;;0.60;99.90;;;;;;5014908;28;20230;-73
2022/12/12 09:51:09;;;;;;;23.00;10.27;;;0.50;99.90;;;;;;5015150;28;20168;-73
2022/12/12 09:53:36;;;;;;;24.13;9.90;;;0.40;99.90;;;;;;5013195;28;20638;-72
2022/12/12 09:56:41;;;;;;;21.87;9.40;;;0.50;99.90;;;;;;5012613;28;20174;-72
2022/12/12 09:59:22;;;;;;;23.47;10.00;;;0.70;99.90;;;;;;4995529;28;20172;-72
2022/12/12 10:02:00;;;;;;;24.73;10.07;;;0.80;99.90;;;;;;4993853;28;20652;-73
2022/12/12 10:04:59;;;;;;;18.80;8.33;;;0.70;99.90;;;;;;5011778;28;20223;-72
2022/12/12 10:07:36;;;;;;;20.50;9.90;;;0.70;99.90;;;;;;5013986;28;20188;-72
2022/12/12 10:10:18;;;;;;;15.77;8.00;;;0.90;99.90;;;;;;5014343;28;20161;-73
2022/12/12 10:12:45;;;;;;;17.80;8.60;;;1.20;99.90;;;;;;5014414;28;20160;-72
2022/12/12 10:15:41;;;;;;;15.70;8.30;;;1.50;99.90;;;;;;5014704;28;20161;-71
2022/12/12 10:18:22;;;;;;;17.23;8.53;;;1.70;99.90;;;;;;5013620;28;20678;-71
2022/12/12 10:20:52;;;;;;;18.70;7.70;;;2.00;99.90;;;;;;5012598;28;20184;-73
2022/12/12 10:23:20;;;;;;;12.20;7.03;;;2.60;99.90;;;;;;5014016;28;20692;-73
2022/12/12 10:25:56;;;;;;;15.50;6.80;;;3.00;99.90;;;;;;5014411;28;20145;-73
2022/12/12 10:28:27;;;;;;;18.73;8.17;;;3.50;99.90;;;;;;4993779;28;20173;-73
2022/12/12 10:31:01;;;;;;;15.70;8.90;;;4.10;99.90;;;;;;4993665;28;20505;-73
2022/12/12 10:33:31;;;;;;;15.30;7.67;;;4.90;99.90;;;;;;4997206;28;20235;-73
2022/12/12 10:36:11;;;;;;;19.17;8.83;;;5.50;99.90;;;;;;5014238;28;20170;-73
2022/12/12 10:38:45;;;;;;;16.83;8.33;;;6.00;99.90;;;;;;5013689;28;20217;-72
2022/12/12 10:41:37;;;;;;;14.60;8.00;;;6.30;99.90;;;;;;5013343;28;20824;-74
2022/12/12 10:44:21;;;;;;;15.20;8.07;;;6.40;99.90;;;;;;5013799;28;20239;-73
2022/12/12 10:47:02;;;;;;;14.80;8.33;;;6.50;99.90;;;;;;5014021;28;20526;-73
2022/12/12 10:49:33;;;;;;;15.37;8.10;;;7.20;99.90;;;;;;5013529;28;20172;-72
2022/12/12 10:52:03;;;;;;;15.97;8.70;;;7.70;99.90;;;;;;5013944;28;20648;-74
2022/12/12 10:54:38;;;;;;;11.67;7.33;;;8.10;99.90;;;;;;5013230;28;20183;-72
2022/12/12 10:57:27;;;;;;;15.07;7.50;;;8.30;98.30;;;;;;5013900;28;20560;-72
2022/12/12 10:59:56;;;;;;;14.40;7.87;;;8.20;97.50;;;;;;5013848;28;20219;-72
2022/12/12 11:02:26;;;;;;;12.93;6.60;;;7.70;98.20;;;;;;5013934;28;20173;-72
2022/12/12 11:05:04;;;;;;;13.60;6.87;;;7.70;98.60;;;;;;5013992;28;20270;-73
2022/12/12 11:07:37;;;;;;;13.30;7.67;;;7.50;98.40;;;;;;5013593;28;20172;-72
2022/12/12 11:10:23;;;;;;;12.67;6.97;;;8.30;97.90;;;;;;5013578;28;20196;-72
2022/12/12 11:13:15;;;;;;;12.90;7.33;;;9.30;96.30;;;;;;5013608;28;20184;-72
2022/12/12 11:15:55;;;;;;;12.97;7.30;;;10.00;95.00;;;;;;5013318;28;20185;-72
2022/12/12 11:18:22;;;;;;;12.73;7.57;;;10.50;94.10;;;;;;5012010;28;20240;-72
2022/12/12 11:20:51;;;;;;;16.30;8.33;;;10.80;93.00;;;;;;5013025;28;20196;-73
2022/12/12 11:23:24;;;;;;;14.17;8.20;;;11.00;92.90;;;;;;5012702;28;20667;-72
2022/12/12 11:26:01;;;;;;;15.23;8.43;;;11.60;92.20;;;;;;5013091;28;20574;-72
2022/12/12 11:28:36;;;;;;;15.00;7.53;;;11.70;91.70;;;;;;5013098;28;20170;-73
2022/12/12 11:31:06;;;;;;;12.27;7.07;;;12.10;91.30;;;;;;5012908;28;20174;-72
2022/12/12 11:33:38;;;;;;;11.57;7.23;;;12.50;90.90;;;;;;5012219;28;20195;-72
2022/12/12 11:36:05;;;;;;;13.80;7.03;;;12.80;90.00;;;;;;5007759;28;20175;-72
2022/12/12 11:38:39;;;;;;;15.43;7.23;;;12.70;89.30;;;;;;5012446;28;20623;-72
2022/12/12 11:41:08;;;;;;;11.90;6.50;;;13.00;88.10;;;;;;5012875;28;20182;-72
2022/12/12 11:43:50;;;;;;;13.40;8.13;;;11.60;88.90;;;;;;5012468;28;20522;-72
2022/12/12 11:46:19;;;;;;;12.20;6.97;;;11.30;90.70;;;;;;5012617;28;20168;-72
2022/12/12 11:48:51;;;;;;;13.83;7.33;;;11.90;90.10;;;;;;5012272;28;20205;-72
2022/12/12 11:51:42;;;;;;;10.27;6.63;;;12.70;89.00;;;;;;5012944;28;20218;-72
2022/12/12 11:54:20;;;;;;;12.60;7.47;;;13.50;87.80;;;;;;5011830;28;20544;-70
2022/12/12 11:56:57;;;;;;;14.20;7.30;;;14.10;85.70;;;;;;5012636;28;20225;-71
2022/12/12 11:59:59;;;;;;;11.53;6.80;;;14.50;84.10;;;;;;5012682;28;20173;-72
2022/12/12 12:02:47;;;;;;;12.13;7.10;;;15.00;81.90;;;;;;5012616;28;20586;-70
2022/12/12 12:05:38;;;;;;;12.47;7.10;;;15.00;80.80;;;;;;5012321;28;20210;-69
2022/12/12 12:08:29;;;;;;;10.70;6.47;;;15.20;80.00;;;;;;5011236;28;20277;-69
2022/12/12 12:11:00;;;;;;;11.10;6.77;;;15.50;79.70;;;;;;5011128;28;20227;-70
2022/12/12 12:13:48;;;;;;;12.43;7.20;;;15.40;78.40;;;;;;5011270;28;20226;-68
2022/12/12 12:16:34;;;;;;;14.03;7.63;;;15.60;78.50;;;;;;5012510;28;20193;-69
2022/12/12 12:19:12;;;;;;;13.13;7.23;;;15.60;78.10;;;;;;5011523;28;20169;-69
2022/12/12 12:22:03;;;;;;;13.07;7.60;;;15.30;77.30;;;;;;5011981;28;20179;-69
2022/12/12 12:24:47;;;;;;;11.63;7.40;;;14.10;78.50;;;;;;5012297;28;20799;-70
2022/12/12 12:27:34;;;;;;;13.13;6.73;;;12.20;81.70;;;;;;5011294;28;20179;-70
2022/12/12 12:30:03;;;;;;;14.70;7.83;;;10.60;85.30;;;;;;5012222;28;20189;-70
2022/12/12 12:32:52;;;;;;;14.17;7.67;;;9.60;87.60;;;;;;5012271;28;20177;-69
2022/12/12 12:35:29;;;;;;;15.63;7.63;;;9.00;90.10;;;;;;5011550;28;20173;-70
2022/12/12 12:38:36;;;;;;;15.50;8.27;;;8.50;90.70;;;;;;5010930;28;20214;-69
2022/12/12 12:41:21;;;;;;;14.77;7.83;;;7.90;91.90;;;;;;5009863;28;20631;-70
2022/12/12 12:44:11;;;;;;;13.70;7.37;;;7.10;93.20;;;;;;5013629;28;20294;-70
2022/12/12 12:46:58;;;;;;;14.53;7.00;;;6.80;94.30;;;;;;5014027;28;20639;-69
2022/12/12 12:49:33;;;;;;;13.27;6.97;;;6.50;95.40;;;;;;5015352;28;20566;-69
2022/12/12 12:52:08;;;;;;;13.70;6.97;;;5.80;96.80;;;;;;5015511;28;20174;-69
2022/12/12 12:54:39;;;;;;;12.97;7.33;;;5.60;98.00;;;;;;5014918;28;20523;-71
2022/12/12 12:57:31;;;;;;;12.43;6.70;;;5.40;98.40;;;;;;5015606;28;20174;-69
2022/12/12 13:00:05;;;;;;;13.83;6.23;;;5.40;99.10;;;;;;5015172;28;20618;-71
2022/12/12 13:02:54;;;;;;;11.23;6.37;;;5.20;99.90;;;;;;5014036;28;20185;-70
2022/12/12 13:05:39;;;;;;;13.47;7.00;;;5.10;99.90;;;;;;5015462;28;20700;-71
2022/12/12 13:08:33;;;;;;;17.00;7.80;;;5.00;99.90;;;;;;5015303;28;20177;-71
2022/12/12 13:11:12;;;;;;;15.07;7.57;;;4.80;99.90;;;;;;5014938;28;20180;-70
2022/12/12 13:13:43;;;;;;;14.73;7.03;;;4.80;99.90;;;;;;5014924;28;20186;-70
2022/12/12 13:16:18;;;;;;;18.53;6.87;;;4.60;99.90;;;;;;5013434;28;20211;-69
2022/12/12 13:18:49;;;;;;;13.73;7.50;;;4.50;99.90;;;;;;5028840;28;20177;-69
2022/12/12 13:21:43;;;;;;;14.93;7.37;;;4.50;99.90;;;;;;5015199;28;20197;-70